This is the latest recevied weather packets stored in our database for station/object JH5HTX-13. If no packets are shown the sender has not sent any weather packets the latest 10 day(s).
| Time | Temp. | Humidity | Pressure | Rain* | Wind** | Luminosity | Snow |
|---|---|---|---|---|---|---|---|
| 1777439644 | 18.89° C | 66% | 1015.5 hPa | 0 mm | - | - | - |
| 1777438744 | 19.44° C | 65% | 1015.6 hPa | 0 mm | - | - | - |
| 1777437844 | 19.44° C | 65% | 1015.6 hPa | 0 mm | - | - | - |
| 1777436943 | 20° C | 63% | 1015.6 hPa | 0 mm | - | - | - |
| 1777436043 | 20° C | 63% | 1015.6 hPa | 0 mm | - | - | - |
| 1777435143 | 20° C | 64% | 1015.8 hPa | 0 mm | - | - | - |
| 1777434243 | 19.44° C | 66% | 1015.8 hPa | 0 mm | - | - | - |
| 1777433343 | 19.44° C | 67% | 1015.8 hPa | 0 mm | - | - | - |
| 1777432443 | 19.44° C | 67% | 1016.1 hPa | 0 mm | - | - | - |
| 1777431543 | 19.44° C | 67% | 1016.1 hPa | 0 mm | - | - | - |
| 1777422542 | 18.33° C | 73% | 1016.1 hPa | 0 mm | - | - | - |
| 1777421642 | 18.33° C | 73% | 1016 hPa | 0 mm | - | - | - |
| 1777420742 | 18.33° C | 74% | 1015.9 hPa | 0 mm | - | - | - |
| 1777419842 | 18.33° C | 74% | 1015.6 hPa | 0 mm | - | - | - |
| 1777407240 | 16.67° C | 80% | 1013.1 hPa | 0 mm | - | - | - |
| 1777406340 | 16.67° C | 80% | 1012.9 hPa | 0 mm | - | - | - |
| 1777405440 | 16.67° C | 80% | 1012.9 hPa | 0 mm | - | - | - |
| 1777404540 | 17.22° C | 80% | 1012.6 hPa | 0 mm | - | - | - |
| 1777403640 | 17.22° C | 79% | 1012.3 hPa | 0 mm | - | - | - |
| 1777402740 | 17.78° C | 79% | 1012.3 hPa | 0 mm | - | - | - |
| 1777399139 | 18.33° C | 76% | 1012.3 hPa | 0 mm | - | - | - |
| 1777397339 | 18.33° C | 76% | 1012.4 hPa | 0 mm | - | - | - |
| 1777396439 | 18.33° C | 76% | 1012.4 hPa | 0 mm | - | - | - |
| 1777395539 | 18.33° C | 75% | 1012.1 hPa | 0 mm | - | - | - |
| 1777394639 | 18.89° C | 74% | 1012.2 hPa | 0 mm | - | - | - |
* Rain latest hour (hover to see other rain measurements)
** Current wind speed in m/s (hover to see current wind gust speed)